Deane, Kentucky
Current Conditions -  °F | °C
As of 6:15 PM on Monday 22 Dec 2014 (Local Time) from KLNP Reporting Station
Scattered Clouds Scattered Clouds  
Wind Chill:   Ceiling: Unl
Heat Index:   Visibility: 10mi
Dew Point:   Wind: 13mph
Humidity: 66%   Direction: 160°SSE
Pressure: 29.88"   Gusts: 18mph
Location:  37.24°N, 82.78°W
Report Text: KLNP 222315Z AUTO 16011G16KT 10SM SCT080 09/03 A2988 RMK AO2
Loading
Personal Weather Stations






























Interactive Weather Map New forecast layout! Learn more

10-Day Weather Forecast

Advertisements
Track Severe Weather on mobile